sensor_id;sensor_type;location;lat;lon;timestamp;temperature;humidity
15384;DHT22;7790;53.022;12.968;2023-09-18T00:01:06;21.00;60.90
15384;DHT22;7790;53.022;12.968;2023-09-18T00:05:08;21.00;61.20
15384;DHT22;7790;53.022;12.968;2023-09-18T00:09:10;21.00;61.40
15384;DHT22;7790;53.022;12.968;2023-09-18T00:13:14;21.00;61.60
15384;DHT22;7790;53.022;12.968;2023-09-18T00:17:15;21.00;61.60
15384;DHT22;7790;53.022;12.968;2023-09-18T00:21:17;21.00;61.60
15384;DHT22;7790;53.022;12.968;2023-09-18T00:25:18;21.00;61.90
15384;DHT22;7790;53.022;12.968;2023-09-18T00:29:19;21.00;61.70
15384;DHT22;7790;53.022;12.968;2023-09-18T00:33:20;20.90;61.90
15384;DHT22;7790;53.022;12.968;2023-09-18T00:37:21;20.90;61.70
15384;DHT22;7790;53.022;12.968;2023-09-18T00:41:22;20.90;61.60
15384;DHT22;7790;53.022;12.968;2023-09-18T00:45:23;20.90;61.60
15384;DHT22;7790;53.022;12.968;2023-09-18T00:49:24;20.90;61.70
15384;DHT22;7790;53.022;12.968;2023-09-18T00:53:26;20.90;61.90
15384;DHT22;7790;53.022;12.968;2023-09-18T00:57:28;20.80;61.90
15384;DHT22;7790;53.022;12.968;2023-09-18T01:01:29;20.80;62.00
15384;DHT22;7790;53.022;12.968;2023-09-18T01:05:34;20.80;61.60
15384;DHT22;7790;53.022;12.968;2023-09-18T01:09:34;20.70;61.70
15384;DHT22;7790;53.022;12.968;2023-09-18T01:13:48;20.80;61.80
15384;DHT22;7790;53.022;12.968;2023-09-18T01:17:51;20.80;61.80
15384;DHT22;7790;53.022;12.968;2023-09-18T01:21:52;20.70;61.60
15384;DHT22;7790;53.022;12.968;2023-09-18T01:25:53;20.70;61.60
15384;DHT22;7790;53.022;12.968;2023-09-18T01:29:54;20.70;61.60
15384;DHT22;7790;53.022;12.968;2023-09-18T01:33:55;20.70;61.70
15384;DHT22;7790;53.022;12.968;2023-09-18T01:37:58;20.60;61.70
15384;DHT22;7790;53.022;12.968;2023-09-18T01:42:03;20.70;61.80
15384;DHT22;7790;53.022;12.968;2023-09-18T01:46:05;20.60;61.90
15384;DHT22;7790;53.022;12.968;2023-09-18T01:50:07;20.60;61.90
15384;DHT22;7790;53.022;12.968;2023-09-18T01:54:08;20.60;61.90
15384;DHT22;7790;53.022;12.968;2023-09-18T01:58:09;20.60;61.90
15384;DHT22;7790;53.022;12.968;2023-09-18T02:02:10;20.60;61.70
15384;DHT22;7790;53.022;12.968;2023-09-18T02:06:12;20.50;61.40
15384;DHT22;7790;53.022;12.968;2023-09-18T02:10:14;20.50;61.40
15384;DHT22;7790;53.022;12.968;2023-09-18T02:14:15;20.50;61.60
15384;DHT22;7790;53.022;12.968;2023-09-18T02:18:17;20.50;61.70
15384;DHT22;7790;53.022;12.968;2023-09-18T02:22:18;20.40;61.80
15384;DHT22;7790;53.022;12.968;2023-09-18T02:26:20;20.40;61.80
15384;DHT22;7790;53.022;12.968;2023-09-18T02:30:20;20.40;61.90
15384;DHT22;7790;53.022;12.968;2023-09-18T02:34:21;20.40;62.10
15384;DHT22;7790;53.022;12.968;2023-09-18T02:38:22;20.40;62.00
15384;DHT22;7790;53.022;12.968;2023-09-18T02:42:23;20.40;62.10
15384;DHT22;7790;53.022;12.968;2023-09-18T02:46:24;20.40;62.00
15384;DHT22;7790;53.022;12.968;2023-09-18T02:50:25;20.30;62.00
15384;DHT22;7790;53.022;12.968;2023-09-18T02:54:26;20.30;62.00
15384;DHT22;7790;53.022;12.968;2023-09-18T02:58:27;20.30;62.20
15384;DHT22;7790;53.022;12.968;2023-09-18T03:02:30;20.30;62.40
15384;DHT22;7790;53.022;12.968;2023-09-18T03:06:31;20.30;62.80
15384;DHT22;7790;53.022;12.968;2023-09-18T03:10:37;20.30;62.20
15384;DHT22;7790;53.022;12.968;2023-09-18T03:14:40;20.30;62.40
15384;DHT22;7790;53.022;12.968;2023-09-18T03:18:41;20.30;62.30
15384;DHT22;7790;53.022;12.968;2023-09-18T03:22:42;20.30;62.20
15384;DHT22;7790;53.022;12.968;2023-09-18T03:26:43;20.30;62.10
15384;DHT22;7790;53.022;12.968;2023-09-18T03:30:43;20.20;61.90
15384;DHT22;7790;53.022;12.968;2023-09-18T03:34:45;20.20;62.20
15384;DHT22;7790;53.022;12.968;2023-09-18T03:38:46;20.20;62.30
15384;DHT22;7790;53.022;12.968;2023-09-18T03:42:47;20.20;62.40
15384;DHT22;7790;53.022;12.968;2023-09-18T03:46:49;20.20;62.50
15384;DHT22;7790;53.022;12.968;2023-09-18T03:50:50;20.20;62.30
15384;DHT22;7790;53.022;12.968;2023-09-18T03:54:51;20.20;62.50
15384;DHT22;7790;53.022;12.968;2023-09-18T03:58:52;20.10;62.40
15384;DHT22;7790;53.022;12.968;2023-09-18T04:02:53;20.10;62.20
15384;DHT22;7790;53.022;12.968;2023-09-18T04:06:54;20.10;62.20
15384;DHT22;7790;53.022;12.968;2023-09-18T04:10:55;20.10;62.20
15384;DHT22;7790;53.022;12.968;2023-09-18T04:14:58;20.10;62.30
15384;DHT22;7790;53.022;12.968;2023-09-18T04:18:59;20.10;62.00
15384;DHT22;7790;53.022;12.968;2023-09-18T04:23:21;20.10;61.90
15384;DHT22;7790;53.022;12.968;2023-09-18T04:27:22;20.10;63.30
15384;DHT22;7790;53.022;12.968;2023-09-18T04:31:23;20.10;63.40
15384;DHT22;7790;53.022;12.968;2023-09-18T04:35:24;20.10;63.60
15384;DHT22;7790;53.022;12.968;2023-09-18T04:39:26;20.10;63.70
15384;DHT22;7790;53.022;12.968;2023-09-18T04:43:27;20.20;63.40
15384;DHT22;7790;53.022;12.968;2023-09-18T04:47:30;20.20;63.60
15384;DHT22;7790;53.022;12.968;2023-09-18T04:51:32;20.20;63.50
15384;DHT22;7790;53.022;12.968;2023-09-18T04:55:34;20.10;63.90
15384;DHT22;7790;53.022;12.968;2023-09-18T04:59:35;20.20;63.40
15384;DHT22;7790;53.022;12.968;2023-09-18T05:03:36;20.20;63.30
15384;DHT22;7790;53.022;12.968;2023-09-18T05:07:37;20.20;63.20
15384;DHT22;7790;53.022;12.968;2023-09-18T05:11:38;20.20;63.10
15384;DHT22;7790;53.022;12.968;2023-09-18T05:15:40;20.20;63.10
15384;DHT22;7790;53.022;12.968;2023-09-18T05:19:42;20.20;62.90
15384;DHT22;7790;53.022;12.968;2023-09-18T05:23:43;20.30;62.80
15384;DHT22;7790;53.022;12.968;2023-09-18T05:27:44;20.20;62.90
15384;DHT22;7790;53.022;12.968;2023-09-18T05:31:44;20.20;62.70
15384;DHT22;7790;53.022;12.968;2023-09-18T05:35:46;20.10;63.00
15384;DHT22;7790;53.022;12.968;2023-09-18T05:39:47;20.20;63.00
15384;DHT22;7790;53.022;12.968;2023-09-18T05:43:47;20.10;63.20
15384;DHT22;7790;53.022;12.968;2023-09-18T05:47:49;20.10;63.20
15384;DHT22;7790;53.022;12.968;2023-09-18T05:51:50;20.10;64.00
15384;DHT22;7790;53.022;12.968;2023-09-18T05:55:51;20.10;64.30
15384;DHT22;7790;53.022;12.968;2023-09-18T05:59:52;20.10;64.90
15384;DHT22;7790;53.022;12.968;2023-09-18T06:03:52;20.10;65.30
15384;DHT22;7790;53.022;12.968;2023-09-18T06:07:53;20.00;65.90
15384;DHT22;7790;53.022;12.968;2023-09-18T06:11:54;20.10;66.30
15384;DHT22;7790;53.022;12.968;2023-09-18T06:15:55;20.00;66.90
15384;DHT22;7790;53.022;12.968;2023-09-18T06:19:56;20.00;67.20
15384;DHT22;7790;53.022;12.968;2023-09-18T06:23:57;20.00;67.50
15384;DHT22;7790;53.022;12.968;2023-09-18T06:27:58;20.00;67.80
15384;DHT22;7790;53.022;12.968;2023-09-18T06:32:01;20.00;68.00
15384;DHT22;7790;53.022;12.968;2023-09-18T06:36:02;20.00;68.60
15384;DHT22;7790;53.022;12.968;2023-09-18T06:40:04;19.90;70.50
15384;DHT22;7790;53.022;12.968;2023-09-18T06:44:06;19.90;70.50
15384;DHT22;7790;53.022;12.968;2023-09-18T06:48:07;20.00;71.10
15384;DHT22;7790;53.022;12.968;2023-09-18T06:52:09;20.00;70.60
15384;DHT22;7790;53.022;12.968;2023-09-18T06:56:10;20.10;71.10
15384;DHT22;7790;53.022;12.968;2023-09-18T07:00:11;20.20;69.80
15384;DHT22;7790;53.022;12.968;2023-09-18T07:04:13;20.30;69.70
15384;DHT22;7790;53.022;12.968;2023-09-18T07:08:13;20.40;68.80
15384;DHT22;7790;53.022;12.968;2023-09-18T07:12:16;20.50;69.50
15384;DHT22;7790;53.022;12.968;2023-09-18T07:16:20;20.60;69.00
15384;DHT22;7790;53.022;12.968;2023-09-18T07:20:20;20.70;68.10
15384;DHT22;7790;53.022;12.968;2023-09-18T07:24:24;20.70;68.50
15384;DHT22;7790;53.022;12.968;2023-09-18T07:28:26;20.80;69.60
15384;DHT22;7790;53.022;12.968;2023-09-18T07:32:27;20.90;68.60
15384;DHT22;7790;53.022;12.968;2023-09-18T07:36:28;20.90;68.90
15384;DHT22;7790;53.022;12.968;2023-09-18T07:40:29;21.00;67.70
15384;DHT22;7790;53.022;12.968;2023-09-18T07:44:30;21.10;67.90
15384;DHT22;7790;53.022;12.968;2023-09-18T07:48:31;21.20;66.90
15384;DHT22;7790;53.022;12.968;2023-09-18T07:52:32;21.30;66.20
15384;DHT22;7790;53.022;12.968;2023-09-18T07:56:33;21.40;66.20
15384;DHT22;7790;53.022;12.968;2023-09-18T08:00:35;21.40;65.70
15384;DHT22;7790;53.022;12.968;2023-09-18T08:04:36;21.60;64.80
15384;DHT22;7790;53.022;12.968;2023-09-18T08:08:36;21.60;65.30
15384;DHT22;7790;53.022;12.968;2023-09-18T08:12:37;21.70;64.50
15384;DHT22;7790;53.022;12.968;2023-09-18T08:16:38;21.80;65.20
15384;DHT22;7790;53.022;12.968;2023-09-18T08:20:43;21.90;64.00
15384;DHT22;7790;53.022;12.968;2023-09-18T08:24:44;21.90;64.10
15384;DHT22;7790;53.022;12.968;2023-09-18T08:28:46;22.00;64.40
15384;DHT22;7790;53.022;12.968;2023-09-18T08:32:47;22.00;64.20
15384;DHT22;7790;53.022;12.968;2023-09-18T08:36:48;22.10;63.90
15384;DHT22;7790;53.022;12.968;2023-09-18T08:40:49;22.20;63.90
15384;DHT22;7790;53.022;12.968;2023-09-18T08:44:51;22.20;63.40
15384;DHT22;7790;53.022;12.968;2023-09-18T08:48:54;22.30;63.00
15384;DHT22;7790;53.022;12.968;2023-09-18T08:52:56;22.50;61.50
15384;DHT22;7790;53.022;12.968;2023-09-18T08:56:57;22.70;61.20
15384;DHT22;7790;53.022;12.968;2023-09-18T09:00:58;22.70;60.20
15384;DHT22;7790;53.022;12.968;2023-09-18T09:05:00;22.70;59.50
15384;DHT22;7790;53.022;12.968;2023-09-18T09:09:01;22.70;59.50
15384;DHT22;7790;53.022;12.968;2023-09-18T09:13:03;22.80;59.90
15384;DHT22;7790;53.022;12.968;2023-09-18T09:17:05;22.90;59.80
15384;DHT22;7790;53.022;12.968;2023-09-18T09:21:06;22.90;59.70
15384;DHT22;7790;53.022;12.968;2023-09-18T09:29:22;23.10;58.90
15384;DHT22;7790;53.022;12.968;2023-09-18T09:33:24;23.10;58.80
15384;DHT22;7790;53.022;12.968;2023-09-18T09:37:32;23.20;58.40
15384;DHT22;7790;53.022;12.968;2023-09-18T09:41:33;23.20;57.70
15384;DHT22;7790;53.022;12.968;2023-09-18T09:45:34;23.30;57.60
15384;DHT22;7790;53.022;12.968;2023-09-18T09:49:47;23.40;57.20
15384;DHT22;7790;53.022;12.968;2023-09-18T09:53:48;23.40;57.50
15384;DHT22;7790;53.022;12.968;2023-09-18T09:57:58;23.40;57.90
15384;DHT22;7790;53.022;12.968;2023-09-18T10:02:00;23.60;56.90
15384;DHT22;7790;53.022;12.968;2023-09-18T10:06:02;23.60;56.30
15384;DHT22;7790;53.022;12.968;2023-09-18T10:10:04;23.70;56.80
15384;DHT22;7790;53.022;12.968;2023-09-18T10:14:20;23.60;57.10
15384;DHT22;7790;53.022;12.968;2023-09-18T10:18:32;23.70;57.50
15384;DHT22;7790;53.022;12.968;2023-09-18T10:22:39;23.80;56.70
15384;DHT22;7790;53.022;12.968;2023-09-18T10:26:56;23.80;57.00
15384;DHT22;7790;53.022;12.968;2023-09-18T10:30:57;23.90;56.90
15384;DHT22;7790;53.022;12.968;2023-09-18T10:35:00;23.90;56.70
15384;DHT22;7790;53.022;12.968;2023-09-18T10:39:01;23.70;56.80
15384;DHT22;7790;53.022;12.968;2023-09-18T10:43:10;23.30;57.50
15384;DHT22;7790;53.022;12.968;2023-09-18T10:47:12;23.10;57.90
15384;DHT22;7790;53.022;12.968;2023-09-18T10:51:22;23.00;58.30
15384;DHT22;7790;53.022;12.968;2023-09-18T10:55:25;23.00;58.80
15384;DHT22;7790;53.022;12.968;2023-09-18T10:59:28;22.90;58.80
15384;DHT22;7790;53.022;12.968;2023-09-18T11:03:37;22.80;58.90
15384;DHT22;7790;53.022;12.968;2023-09-18T11:07:39;22.80;59.30
15384;DHT22;7790;53.022;12.968;2023-09-18T11:11:40;22.80;59.20
15384;DHT22;7790;53.022;12.968;2023-09-18T11:15:41;22.80;59.10
15384;DHT22;7790;53.022;12.968;2023-09-18T11:19:44;22.70;59.10
15384;DHT22;7790;53.022;12.968;2023-09-18T11:23:45;22.70;59.10
15384;DHT22;7790;53.022;12.968;2023-09-18T11:27:53;22.70;59.00
15384;DHT22;7790;53.022;12.968;2023-09-18T11:31:57;22.70;59.20
15384;DHT22;7790;53.022;12.968;2023-09-18T11:36:07;22.70;59.20
15384;DHT22;7790;53.022;12.968;2023-09-18T11:40:28;22.60;59.30
15384;DHT22;7790;53.022;12.968;2023-09-18T11:44:33;22.60;59.30
15384;DHT22;7790;53.022;12.968;2023-09-18T11:48:38;22.60;59.40
15384;DHT22;7790;53.022;12.968;2023-09-18T11:52:42;22.60;59.40
15384;DHT22;7790;53.022;12.968;2023-09-18T11:56:43;22.60;59.30
15384;DHT22;7790;53.022;12.968;2023-09-18T12:00:45;22.60;59.30
15384;DHT22;7790;53.022;12.968;2023-09-18T12:04:48;22.60;59.40
15384;DHT22;7790;53.022;12.968;2023-09-18T12:08:52;22.50;59.40
15384;DHT22;7790;53.022;12.968;2023-09-18T12:12:53;22.50;59.40
15384;DHT22;7790;53.022;12.968;2023-09-18T12:16:56;22.50;59.40
15384;DHT22;7790;53.022;12.968;2023-09-18T12:20:59;22.40;59.50
15384;DHT22;7790;53.022;12.968;2023-09-18T12:25:13;22.50;59.50
15384;DHT22;7790;53.022;12.968;2023-09-18T12:29:24;22.50;59.50
15384;DHT22;7790;53.022;12.968;2023-09-18T12:33:26;22.50;59.40
15384;DHT22;7790;53.022;12.968;2023-09-18T12:37:28;22.50;59.50
15384;DHT22;7790;53.022;12.968;2023-09-18T12:41:29;22.40;59.40
15384;DHT22;7790;53.022;12.968;2023-09-18T12:45:32;22.40;59.50
15384;DHT22;7790;53.022;12.968;2023-09-18T12:49:35;22.40;59.60
15384;DHT22;7790;53.022;12.968;2023-09-18T12:53:36;22.40;59.40
15384;DHT22;7790;53.022;12.968;2023-09-18T12:57:42;22.40;59.50
15384;DHT22;7790;53.022;12.968;2023-09-18T13:01:46;22.40;59.50
15384;DHT22;7790;53.022;12.968;2023-09-18T13:05:48;22.40;59.60
15384;DHT22;7790;53.022;12.968;2023-09-18T13:10:00;22.40;59.50
15384;DHT22;7790;53.022;12.968;2023-09-18T13:14:01;22.40;59.60
15384;DHT22;7790;53.022;12.968;2023-09-18T13:18:10;22.40;59.30
15384;DHT22;7790;53.022;12.968;2023-09-18T13:22:25;22.40;59.60
15384;DHT22;7790;53.022;12.968;2023-09-18T13:26:27;22.40;59.70
15384;DHT22;7790;53.022;12.968;2023-09-18T13:30:28;22.40;59.50
15384;DHT22;7790;53.022;12.968;2023-09-18T13:34:29;22.40;59.50
15384;DHT22;7790;53.022;12.968;2023-09-18T13:38:30;22.40;59.50
15384;DHT22;7790;53.022;12.968;2023-09-18T13:42:31;22.40;59.30
15384;DHT22;7790;53.022;12.968;2023-09-18T13:46:32;22.40;59.40
15384;DHT22;7790;53.022;12.968;2023-09-18T13:50:38;22.40;59.40
15384;DHT22;7790;53.022;12.968;2023-09-18T13:54:39;22.40;59.60
15384;DHT22;7790;53.022;12.968;2023-09-18T13:58:41;22.40;59.70
15384;DHT22;7790;53.022;12.968;2023-09-18T14:02:45;22.40;59.50
15384;DHT22;7790;53.022;12.968;2023-09-18T14:06:46;22.30;59.60
15384;DHT22;7790;53.022;12.968;2023-09-18T14:10:47;22.40;59.50
15384;DHT22;7790;53.022;12.968;2023-09-18T14:14:48;22.40;59.70
15384;DHT22;7790;53.022;12.968;2023-09-18T14:18:49;22.40;59.60
15384;DHT22;7790;53.022;12.968;2023-09-18T14:22:51;22.40;59.60
15384;DHT22;7790;53.022;12.968;2023-09-18T14:30:37;22.30;59.00
15384;DHT22;7790;53.022;12.968;2023-09-18T14:34:38;22.40;59.60
15384;DHT22;7790;53.022;12.968;2023-09-18T14:38:38;22.30;59.50
15384;DHT22;7790;53.022;12.968;2023-09-18T14:42:39;22.40;59.70
15384;DHT22;7790;53.022;12.968;2023-09-18T14:46:40;22.40;59.60
15384;DHT22;7790;53.022;12.968;2023-09-18T14:50:41;22.40;59.60
15384;DHT22;7790;53.022;12.968;2023-09-18T14:54:43;22.40;59.60
15384;DHT22;7790;53.022;12.968;2023-09-18T14:58:44;22.40;59.70
15384;DHT22;7790;53.022;12.968;2023-09-18T15:02:45;22.40;59.70
15384;DHT22;7790;53.022;12.968;2023-09-18T15:06:46;22.30;59.60
15384;DHT22;7790;53.022;12.968;2023-09-18T15:10:47;22.30;59.70
15384;DHT22;7790;53.022;12.968;2023-09-18T15:14:48;22.30;59.80
15384;DHT22;7790;53.022;12.968;2023-09-18T15:18:49;22.30;59.60
15384;DHT22;7790;53.022;12.968;2023-09-18T15:22:50;22.30;59.70
15384;DHT22;7790;53.022;12.968;2023-09-18T15:26:51;22.30;59.80
15384;DHT22;7790;53.022;12.968;2023-09-18T15:30:52;22.30;59.80
15384;DHT22;7790;53.022;12.968;2023-09-18T15:34:53;22.30;59.70
15384;DHT22;7790;53.022;12.968;2023-09-18T15:38:54;22.30;59.70
15384;DHT22;7790;53.022;12.968;2023-09-18T15:42:57;22.30;59.80
15384;DHT22;7790;53.022;12.968;2023-09-18T15:46:58;22.30;59.60
15384;DHT22;7790;53.022;12.968;2023-09-18T15:50:59;22.30;59.80
15384;DHT22;7790;53.022;12.968;2023-09-18T15:55:00;22.30;59.60
15384;DHT22;7790;53.022;12.968;2023-09-18T15:59:02;22.30;59.50
15384;DHT22;7790;53.022;12.968;2023-09-18T16:03:04;22.30;59.60
15384;DHT22;7790;53.022;12.968;2023-09-18T16:07:05;22.30;59.60
15384;DHT22;7790;53.022;12.968;2023-09-18T16:11:06;22.30;59.60
15384;DHT22;7790;53.022;12.968;2023-09-18T16:15:08;22.30;59.50
15384;DHT22;7790;53.022;12.968;2023-09-18T16:19:09;22.30;59.80
15384;DHT22;7790;53.022;12.968;2023-09-18T16:23:09;22.30;60.00
15384;DHT22;7790;53.022;12.968;2023-09-18T16:27:11;22.30;60.00
15384;DHT22;7790;53.022;12.968;2023-09-18T16:31:14;22.30;60.20
15384;DHT22;7790;53.022;12.968;2023-09-18T16:35:15;22.30;60.00
15384;DHT22;7790;53.022;12.968;2023-09-18T16:39:15;22.30;60.00
15384;DHT22;7790;53.022;12.968;2023-09-18T16:43:17;22.30;60.20
15384;DHT22;7790;53.022;12.968;2023-09-18T16:47:20;22.30;60.00
15384;DHT22;7790;53.022;12.968;2023-09-18T16:51:21;22.30;60.10
15384;DHT22;7790;53.022;12.968;2023-09-18T16:55:22;22.30;59.80
15384;DHT22;7790;53.022;12.968;2023-09-18T16:59:23;22.30;59.90
15384;DHT22;7790;53.022;12.968;2023-09-18T17:03:27;22.30;60.10
15384;DHT22;7790;53.022;12.968;2023-09-18T17:07:28;22.30;60.00
15384;DHT22;7790;53.022;12.968;2023-09-18T17:11:33;22.30;60.20
15384;DHT22;7790;53.022;12.968;2023-09-18T17:15:34;22.30;60.20
15384;DHT22;7790;53.022;12.968;2023-09-18T17:19:35;22.30;59.90
15384;DHT22;7790;53.022;12.968;2023-09-18T17:23:36;22.30;60.20
15384;DHT22;7790;53.022;12.968;2023-09-18T17:27:37;22.30;60.10
15384;DHT22;7790;53.022;12.968;2023-09-18T17:31:37;22.30;60.30
15384;DHT22;7790;53.022;12.968;2023-09-18T17:35:38;22.30;60.10
15384;DHT22;7790;53.022;12.968;2023-09-18T17:39:39;22.30;60.70
15384;DHT22;7790;53.022;12.968;2023-09-18T17:43:41;22.30;60.60
15384;DHT22;7790;53.022;12.968;2023-09-18T17:47:41;22.30;60.80
15384;DHT22;7790;53.022;12.968;2023-09-18T17:51:43;22.20;60.60
15384;DHT22;7790;53.022;12.968;2023-09-18T17:55:44;22.30;60.50
15384;DHT22;7790;53.022;12.968;2023-09-18T17:59:46;22.30;60.80
15384;DHT22;7790;53.022;12.968;2023-09-18T18:03:47;22.30;60.70
15384;DHT22;7790;53.022;12.968;2023-09-18T18:07:51;22.20;60.90
15384;DHT22;7790;53.022;12.968;2023-09-18T18:11:52;22.30;61.00
15384;DHT22;7790;53.022;12.968;2023-09-18T18:15:53;22.30;60.90
15384;DHT22;7790;53.022;12.968;2023-09-18T18:19:54;22.30;61.00
15384;DHT22;7790;53.022;12.968;2023-09-18T18:23:55;22.30;61.20
15384;DHT22;7790;53.022;12.968;2023-09-18T18:27:56;22.30;61.20
15384;DHT22;7790;53.022;12.968;2023-09-18T18:31:57;22.30;61.30
15384;DHT22;7790;53.022;12.968;2023-09-18T18:35:58;22.30;61.30
15384;DHT22;7790;53.022;12.968;2023-09-18T18:39:59;22.30;61.40
15384;DHT22;7790;53.022;12.968;2023-09-18T18:44:00;22.30;61.40
15384;DHT22;7790;53.022;12.968;2023-09-18T18:48:01;22.20;61.50
15384;DHT22;7790;53.022;12.968;2023-09-18T18:52:02;22.20;61.80
15384;DHT22;7790;53.022;12.968;2023-09-18T18:56:04;22.20;61.80
15384;DHT22;7790;53.022;12.968;2023-09-18T19:00:05;22.20;61.70
15384;DHT22;7790;53.022;12.968;2023-09-18T19:04:11;22.20;61.60
15384;DHT22;7790;53.022;12.968;2023-09-18T19:08:12;22.20;61.60
15384;DHT22;7790;53.022;12.968;2023-09-18T19:12:13;22.20;62.00
15384;DHT22;7790;53.022;12.968;2023-09-18T19:16:14;22.20;62.70
15384;DHT22;7790;53.022;12.968;2023-09-18T19:20:15;22.20;61.70
15384;DHT22;7790;53.022;12.968;2023-09-18T19:24:16;22.30;61.20
15384;DHT22;7790;53.022;12.968;2023-09-18T19:28:18;22.30;61.00
15384;DHT22;7790;53.022;12.968;2023-09-18T19:32:19;22.30;60.90
15384;DHT22;7790;53.022;12.968;2023-09-18T19:36:20;22.30;60.80
15384;DHT22;7790;53.022;12.968;2023-09-18T19:40:20;22.30;60.80
15384;DHT22;7790;53.022;12.968;2023-09-18T19:44:21;22.30;60.80
15384;DHT22;7790;53.022;12.968;2023-09-18T19:48:22;22.30;60.90
15384;DHT22;7790;53.022;12.968;2023-09-18T19:52:23;22.30;60.90
15384;DHT22;7790;53.022;12.968;2023-09-18T19:56:25;22.30;60.80
15384;DHT22;7790;53.022;12.968;2023-09-18T20:00:29;22.20;61.00
15384;DHT22;7790;53.022;12.968;2023-09-18T20:04:30;22.30;61.10
15384;DHT22;7790;53.022;12.968;2023-09-18T20:08:32;22.30;61.00
15384;DHT22;7790;53.022;12.968;2023-09-18T20:12:34;22.30;61.40
15384;DHT22;7790;53.022;12.968;2023-09-18T20:16:36;22.30;61.30
15384;DHT22;7790;53.022;12.968;2023-09-18T20:20:37;22.30;61.30
15384;DHT22;7790;53.022;12.968;2023-09-18T20:24:38;22.20;61.30
15384;DHT22;7790;53.022;12.968;2023-09-18T20:28:39;22.30;61.40
15384;DHT22;7790;53.022;12.968;2023-09-18T20:32:43;22.20;61.50
15384;DHT22;7790;53.022;12.968;2023-09-18T20:36:44;22.20;61.60
15384;DHT22;7790;53.022;12.968;2023-09-18T20:40:45;22.20;61.50
15384;DHT22;7790;53.022;12.968;2023-09-18T20:44:46;22.20;61.70
15384;DHT22;7790;53.022;12.968;2023-09-18T20:48:47;22.30;61.80
15384;DHT22;7790;53.022;12.968;2023-09-18T20:52:48;22.20;61.80
15384;DHT22;7790;53.022;12.968;2023-09-18T20:56:49;22.30;61.80
15384;DHT22;7790;53.022;12.968;2023-09-18T21:00:51;22.30;61.90
15384;DHT22;7790;53.022;12.968;2023-09-18T21:04:52;22.20;61.80
15384;DHT22;7790;53.022;12.968;2023-09-18T21:08:54;22.30;62.10
15384;DHT22;7790;53.022;12.968;2023-09-18T21:12:54;22.30;62.00
15384;DHT22;7790;53.022;12.968;2023-09-18T21:16:58;22.20;62.00
15384;DHT22;7790;53.022;12.968;2023-09-18T21:21:00;22.20;62.00
15384;DHT22;7790;53.022;12.968;2023-09-18T21:25:01;22.20;62.20
15384;DHT22;7790;53.022;12.968;2023-09-18T21:29:03;22.20;62.20
15384;DHT22;7790;53.022;12.968;2023-09-18T21:33:05;22.20;62.20
15384;DHT22;7790;53.022;12.968;2023-09-18T21:37:06;22.20;62.30
15384;DHT22;7790;53.022;12.968;2023-09-18T21:41:07;22.20;62.30
15384;DHT22;7790;53.022;12.968;2023-09-18T21:45:09;22.20;62.30
15384;DHT22;7790;53.022;12.968;2023-09-18T21:49:10;22.20;62.40
15384;DHT22;7790;53.022;12.968;2023-09-18T21:53:11;22.20;62.40
15384;DHT22;7790;53.022;12.968;2023-09-18T21:57:12;22.20;62.40
15384;DHT22;7790;53.022;12.968;2023-09-18T22:01:14;22.20;62.40
15384;DHT22;7790;53.022;12.968;2023-09-18T22:05:15;22.20;62.40
15384;DHT22;7790;53.022;12.968;2023-09-18T22:09:17;22.20;62.50
15384;DHT22;7790;53.022;12.968;2023-09-18T22:13:19;22.20;62.50
15384;DHT22;7790;53.022;12.968;2023-09-18T22:17:20;22.20;62.60
15384;DHT22;7790;53.022;12.968;2023-09-18T22:21:21;22.20;62.60
15384;DHT22;7790;53.022;12.968;2023-09-18T22:25:23;22.20;62.60
15384;DHT22;7790;53.022;12.968;2023-09-18T22:29:24;22.20;62.60
15384;DHT22;7790;53.022;12.968;2023-09-18T22:33:25;22.20;62.70
15384;DHT22;7790;53.022;12.968;2023-09-18T22:37:27;22.20;62.70
15384;DHT22;7790;53.022;12.968;2023-09-18T22:54:50;22.20;62.90
15384;DHT22;7790;53.022;12.968;2023-09-18T22:58:51;22.20;62.90
15384;DHT22;7790;53.022;12.968;2023-09-18T23:02:53;22.20;62.80
15384;DHT22;7790;53.022;12.968;2023-09-18T23:06:53;22.20;62.70
15384;DHT22;7790;53.022;12.968;2023-09-18T23:10:56;22.20;62.80
15384;DHT22;7790;53.022;12.968;2023-09-18T23:15:00;22.20;62.80
15384;DHT22;7790;53.022;12.968;2023-09-18T23:19:02;22.20;62.80
15384;DHT22;7790;53.022;12.968;2023-09-18T23:23:05;22.20;62.90
15384;DHT22;7790;53.022;12.968;2023-09-18T23:27:07;22.20;62.80
15384;DHT22;7790;53.022;12.968;2023-09-18T23:31:11;22.20;63.00
15384;DHT22;7790;53.022;12.968;2023-09-18T23:35:14;22.20;62.90
15384;DHT22;7790;53.022;12.968;2023-09-18T23:39:23;22.10;62.80
15384;DHT22;7790;53.022;12.968;2023-09-18T23:43:24;22.10;62.80
15384;DHT22;7790;53.022;12.968;2023-09-18T23:47:25;22.20;62.90
15384;DHT22;7790;53.022;12.968;2023-09-18T23:51:26;22.20;63.00
15384;DHT22;7790;53.022;12.968;2023-09-18T23:55:27;22.20;63.00
15384;DHT22;7790;53.022;12.968;2023-09-18T23:59:32;22.10;62.90
